sensor_id;sensor_type;location;lat;lon;timestamp;temperature;humidity
67820;DHT22;54618;52.018;5.576;2022-10-16T00:00:19;17.80;68.30
67820;DHT22;54618;52.018;5.576;2022-10-16T00:02:44;17.80;68.30
67820;DHT22;54618;52.018;5.576;2022-10-16T00:05:10;17.80;68.30
67820;DHT22;54618;52.018;5.576;2022-10-16T00:07:35;17.80;68.30
67820;DHT22;54618;52.018;5.576;2022-10-16T00:10:00;17.80;68.30
67820;DHT22;54618;52.018;5.576;2022-10-16T00:12:26;17.80;68.30
67820;DHT22;54618;52.018;5.576;2022-10-16T00:14:51;17.80;68.20
67820;DHT22;54618;52.018;5.576;2022-10-16T00:17:17;17.80;68.20
67820;DHT22;54618;52.018;5.576;2022-10-16T00:19:43;17.80;68.20
67820;DHT22;54618;52.018;5.576;2022-10-16T00:22:08;17.80;68.20
67820;DHT22;54618;52.018;5.576;2022-10-16T00:24:34;17.80;68.20
67820;DHT22;54618;52.018;5.576;2022-10-16T00:26:59;17.80;68.20
67820;DHT22;54618;52.018;5.576;2022-10-16T00:29:25;17.80;68.30
67820;DHT22;54618;52.018;5.576;2022-10-16T00:31:50;17.80;68.30
67820;DHT22;54618;52.018;5.576;2022-10-16T00:34:16;17.80;68.20
67820;DHT22;54618;52.018;5.576;2022-10-16T00:36:41;17.80;68.20
67820;DHT22;54618;52.018;5.576;2022-10-16T00:39:06;17.80;68.20
67820;DHT22;54618;52.018;5.576;2022-10-16T00:41:32;17.80;68.20
67820;DHT22;54618;52.018;5.576;2022-10-16T00:44:00;17.80;68.20
67820;DHT22;54618;52.018;5.576;2022-10-16T00:46:44;17.80;68.20
67820;DHT22;54618;52.018;5.576;2022-10-16T00:49:15;17.90;68.20
67820;DHT22;54618;52.018;5.576;2022-10-16T00:51:46;17.90;68.20
67820;DHT22;54618;52.018;5.576;2022-10-16T00:54:30;17.90;68.20
67820;DHT22;54618;52.018;5.576;2022-10-16T00:56:58;17.80;68.10
67820;DHT22;54618;52.018;5.576;2022-10-16T00:59:28;17.80;68.20
67820;DHT22;54618;52.018;5.576;2022-10-16T01:01:55;17.80;68.20
67820;DHT22;54618;52.018;5.576;2022-10-16T01:04:22;17.80;68.20
67820;DHT22;54618;52.018;5.576;2022-10-16T01:09:39;17.80;68.20
67820;DHT22;54618;52.018;5.576;2022-10-16T01:12:30;17.90;68.20
67820;DHT22;54618;52.018;5.576;2022-10-16T01:17:56;17.80;68.20
67820;DHT22;54618;52.018;5.576;2022-10-16T01:20:30;17.80;68.20
67820;DHT22;54618;52.018;5.576;2022-10-16T01:23:01;17.80;68.20
67820;DHT22;54618;52.018;5.576;2022-10-16T01:25:49;17.80;68.20
67820;DHT22;54618;52.018;5.576;2022-10-16T01:28:19;17.80;68.20
67820;DHT22;54618;52.018;5.576;2022-10-16T01:30:47;17.90;68.20
67820;DHT22;54618;52.018;5.576;2022-10-16T01:33:23;17.80;68.20
67820;DHT22;54618;52.018;5.576;2022-10-16T01:35:55;17.80;68.20
67820;DHT22;54618;52.018;5.576;2022-10-16T01:38:26;17.80;68.10
67820;DHT22;54618;52.018;5.576;2022-10-16T01:40:58;17.80;68.10
67820;DHT22;54618;52.018;5.576;2022-10-16T01:43:31;17.80;68.10
67820;DHT22;54618;52.018;5.576;2022-10-16T01:45:59;17.80;68.20
67820;DHT22;54618;52.018;5.576;2022-10-16T01:48:25;17.80;68.20
67820;DHT22;54618;52.018;5.576;2022-10-16T01:50:57;17.80;68.10
67820;DHT22;54618;52.018;5.576;2022-10-16T01:53:25;17.80;68.10
67820;DHT22;54618;52.018;5.576;2022-10-16T01:55:52;17.80;68.10
67820;DHT22;54618;52.018;5.576;2022-10-16T01:58:21;17.80;68.10
67820;DHT22;54618;52.018;5.576;2022-10-16T02:00:47;17.80;68.10
67820;DHT22;54618;52.018;5.576;2022-10-16T02:03:16;17.80;68.10
67820;DHT22;54618;52.018;5.576;2022-10-16T02:05:55;17.80;68.10
67820;DHT22;54618;52.018;5.576;2022-10-16T02:08:23;17.80;68.10
67820;DHT22;54618;52.018;5.576;2022-10-16T02:10:49;17.80;68.10
67820;DHT22;54618;52.018;5.576;2022-10-16T02:13:26;17.80;68.10
67820;DHT22;54618;52.018;5.576;2022-10-16T02:15:52;17.80;68.10
67820;DHT22;54618;52.018;5.576;2022-10-16T02:18:18;17.80;68.10
67820;DHT22;54618;52.018;5.576;2022-10-16T02:20:51;17.80;68.10
67820;DHT22;54618;52.018;5.576;2022-10-16T02:23:35;17.80;68.10
67820;DHT22;54618;52.018;5.576;2022-10-16T02:26:05;17.80;68.10
67820;DHT22;54618;52.018;5.576;2022-10-16T02:28:45;17.80;68.20
67820;DHT22;54618;52.018;5.576;2022-10-16T02:31:14;17.80;68.10
67820;DHT22;54618;52.018;5.576;2022-10-16T02:33:42;17.80;68.20
67820;DHT22;54618;52.018;5.576;2022-10-16T02:36:08;17.80;68.20
67820;DHT22;54618;52.018;5.576;2022-10-16T02:38:34;17.80;68.20
67820;DHT22;54618;52.018;5.576;2022-10-16T02:41:00;17.80;68.10
67820;DHT22;54618;52.018;5.576;2022-10-16T02:43:26;17.80;68.10
67820;DHT22;54618;52.018;5.576;2022-10-16T02:45:52;17.80;68.10
67820;DHT22;54618;52.018;5.576;2022-10-16T02:48:17;17.80;68.10
67820;DHT22;54618;52.018;5.576;2022-10-16T02:50:43;17.80;68.10
67820;DHT22;54618;52.018;5.576;2022-10-16T02:53:08;17.80;68.10
67820;DHT22;54618;52.018;5.576;2022-10-16T02:55:34;17.80;68.10
67820;DHT22;54618;52.018;5.576;2022-10-16T02:57:59;17.80;68.10
67820;DHT22;54618;52.018;5.576;2022-10-16T03:00:25;17.80;68.10
67820;DHT22;54618;52.018;5.576;2022-10-16T03:02:50;17.80;68.10
67820;DHT22;54618;52.018;5.576;2022-10-16T03:05:16;17.80;68.10
67820;DHT22;54618;52.018;5.576;2022-10-16T03:07:41;17.80;68.10
67820;DHT22;54618;52.018;5.576;2022-10-16T03:10:07;17.80;68.10
67820;DHT22;54618;52.018;5.576;2022-10-16T03:12:33;17.80;68.10
67820;DHT22;54618;52.018;5.576;2022-10-16T03:14:59;17.80;68.10
67820;DHT22;54618;52.018;5.576;2022-10-16T03:17:25;17.80;68.10
67820;DHT22;54618;52.018;5.576;2022-10-16T03:19:50;17.80;68.10
67820;DHT22;54618;52.018;5.576;2022-10-16T03:22:16;17.80;68.10
67820;DHT22;54618;52.018;5.576;2022-10-16T03:24:41;17.80;68.20
67820;DHT22;54618;52.018;5.576;2022-10-16T03:27:07;17.80;68.20
67820;DHT22;54618;52.018;5.576;2022-10-16T03:29:32;17.80;68.10
67820;DHT22;54618;52.018;5.576;2022-10-16T03:31:59;17.80;68.10
67820;DHT22;54618;52.018;5.576;2022-10-16T03:34:24;17.80;68.20
67820;DHT22;54618;52.018;5.576;2022-10-16T03:36:50;17.80;68.20
67820;DHT22;54618;52.018;5.576;2022-10-16T03:39:16;17.80;68.20
67820;DHT22;54618;52.018;5.576;2022-10-16T03:41:42;17.80;68.10
67820;DHT22;54618;52.018;5.576;2022-10-16T03:44:07;17.80;68.20
67820;DHT22;54618;52.018;5.576;2022-10-16T03:46:33;17.80;68.10
67820;DHT22;54618;52.018;5.576;2022-10-16T03:48:58;17.80;68.10
67820;DHT22;54618;52.018;5.576;2022-10-16T03:51:24;17.80;68.20
67820;DHT22;54618;52.018;5.576;2022-10-16T03:53:49;17.80;68.10
67820;DHT22;54618;52.018;5.576;2022-10-16T03:56:15;17.80;68.10
67820;DHT22;54618;52.018;5.576;2022-10-16T03:58:40;17.80;68.70
67820;DHT22;54618;52.018;5.576;2022-10-16T04:01:06;17.80;68.20
67820;DHT22;54618;52.018;5.576;2022-10-16T04:03:32;17.80;68.20
67820;DHT22;54618;52.018;5.576;2022-10-16T04:05:57;17.80;68.10
67820;DHT22;54618;52.018;5.576;2022-10-16T04:08:23;17.80;68.10
67820;DHT22;54618;52.018;5.576;2022-10-16T04:10:49;17.80;68.20
67820;DHT22;54618;52.018;5.576;2022-10-16T04:13:14;17.80;68.40
67820;DHT22;54618;52.018;5.576;2022-10-16T04:15:40;17.80;68.10
67820;DHT22;54618;52.018;5.576;2022-10-16T04:18:05;17.80;68.10
67820;DHT22;54618;52.018;5.576;2022-10-16T04:20:31;17.80;68.10
67820;DHT22;54618;52.018;5.576;2022-10-16T04:22:57;17.80;68.20
67820;DHT22;54618;52.018;5.576;2022-10-16T04:25:22;17.80;68.10
67820;DHT22;54618;52.018;5.576;2022-10-16T04:27:48;17.80;68.20
67820;DHT22;54618;52.018;5.576;2022-10-16T04:30:14;17.80;68.10
67820;DHT22;54618;52.018;5.576;2022-10-16T04:32:40;17.80;68.10
67820;DHT22;54618;52.018;5.576;2022-10-16T04:35:06;17.80;68.10
67820;DHT22;54618;52.018;5.576;2022-10-16T04:37:32;17.80;68.10
67820;DHT22;54618;52.018;5.576;2022-10-16T04:39:57;17.80;68.10
67820;DHT22;54618;52.018;5.576;2022-10-16T04:42:23;17.80;68.20
67820;DHT22;54618;52.018;5.576;2022-10-16T04:44:49;17.80;68.20
67820;DHT22;54618;52.018;5.576;2022-10-16T04:47:14;17.80;68.10
67820;DHT22;54618;52.018;5.576;2022-10-16T04:49:40;17.80;68.10
67820;DHT22;54618;52.018;5.576;2022-10-16T04:52:05;17.80;68.10
67820;DHT22;54618;52.018;5.576;2022-10-16T04:54:31;17.80;68.10
67820;DHT22;54618;52.018;5.576;2022-10-16T04:56:56;17.80;68.10
67820;DHT22;54618;52.018;5.576;2022-10-16T04:59:22;17.80;68.10
67820;DHT22;54618;52.018;5.576;2022-10-16T05:01:48;17.80;68.10
67820;DHT22;54618;52.018;5.576;2022-10-16T05:04:14;17.80;68.10
67820;DHT22;54618;52.018;5.576;2022-10-16T05:06:40;17.80;68.70
67820;DHT22;54618;52.018;5.576;2022-10-16T05:09:06;17.80;68.10
67820;DHT22;54618;52.018;5.576;2022-10-16T05:11:32;17.80;68.10
67820;DHT22;54618;52.018;5.576;2022-10-16T05:13:57;17.80;68.10
67820;DHT22;54618;52.018;5.576;2022-10-16T05:16:23;17.80;68.10
67820;DHT22;54618;52.018;5.576;2022-10-16T05:18:49;17.80;68.10
67820;DHT22;54618;52.018;5.576;2022-10-16T05:21:16;17.80;68.10
67820;DHT22;54618;52.018;5.576;2022-10-16T05:23:41;17.80;68.10
67820;DHT22;54618;52.018;5.576;2022-10-16T05:26:07;17.80;68.10
67820;DHT22;54618;52.018;5.576;2022-10-16T05:28:33;17.80;68.10
67820;DHT22;54618;52.018;5.576;2022-10-16T05:30:59;17.80;68.10
67820;DHT22;54618;52.018;5.576;2022-10-16T05:33:25;17.80;68.10
67820;DHT22;54618;52.018;5.576;2022-10-16T05:35:51;17.80;68.10
67820;DHT22;54618;52.018;5.576;2022-10-16T05:38:17;17.80;68.10
67820;DHT22;54618;52.018;5.576;2022-10-16T05:40:44;17.80;68.10
67820;DHT22;54618;52.018;5.576;2022-10-16T05:43:15;17.80;68.10
67820;DHT22;54618;52.018;5.576;2022-10-16T05:45:40;17.80;68.10
67820;DHT22;54618;52.018;5.576;2022-10-16T05:48:06;17.70;68.10
67820;DHT22;54618;52.018;5.576;2022-10-16T05:50:31;17.70;68.10
67820;DHT22;54618;52.018;5.576;2022-10-16T05:52:57;17.80;68.10
67820;DHT22;54618;52.018;5.576;2022-10-16T05:55:22;17.80;68.10
67820;DHT22;54618;52.018;5.576;2022-10-16T05:57:48;17.80;68.10
67820;DHT22;54618;52.018;5.576;2022-10-16T06:00:14;17.80;68.20
67820;DHT22;54618;52.018;5.576;2022-10-16T06:02:39;17.80;68.10
67820;DHT22;54618;52.018;5.576;2022-10-16T06:05:05;17.80;68.10
67820;DHT22;54618;52.018;5.576;2022-10-16T06:07:34;17.80;68.10
67820;DHT22;54618;52.018;5.576;2022-10-16T06:09:59;17.80;68.10
67820;DHT22;54618;52.018;5.576;2022-10-16T06:12:26;17.80;68.10
67820;DHT22;54618;52.018;5.576;2022-10-16T06:14:52;17.80;68.10
67820;DHT22;54618;52.018;5.576;2022-10-16T06:17:17;17.80;68.70
67820;DHT22;54618;52.018;5.576;2022-10-16T06:19:43;17.80;68.10
67820;DHT22;54618;52.018;5.576;2022-10-16T06:22:08;17.80;68.10
67820;DHT22;54618;52.018;5.576;2022-10-16T06:24:34;17.80;68.10
67820;DHT22;54618;52.018;5.576;2022-10-16T06:26:59;17.70;68.10
67820;DHT22;54618;52.018;5.576;2022-10-16T06:29:25;17.80;68.10
67820;DHT22;54618;52.018;5.576;2022-10-16T06:31:50;17.80;68.10
67820;DHT22;54618;52.018;5.576;2022-10-16T06:34:16;17.80;68.10
67820;DHT22;54618;52.018;5.576;2022-10-16T06:36:41;17.80;68.10
67820;DHT22;54618;52.018;5.576;2022-10-16T06:39:08;17.80;68.10
67820;DHT22;54618;52.018;5.576;2022-10-16T06:41:34;17.80;68.10
67820;DHT22;54618;52.018;5.576;2022-10-16T06:44:00;17.80;68.10
67820;DHT22;54618;52.018;5.576;2022-10-16T06:46:26;17.80;68.10
67820;DHT22;54618;52.018;5.576;2022-10-16T06:48:53;17.80;68.10
67820;DHT22;54618;52.018;5.576;2022-10-16T06:51:20;17.80;68.10
67820;DHT22;54618;52.018;5.576;2022-10-16T06:53:48;17.80;68.00
67820;DHT22;54618;52.018;5.576;2022-10-16T06:56:20;17.80;68.00
67820;DHT22;54618;52.018;5.576;2022-10-16T06:58:46;17.80;68.00
67820;DHT22;54618;52.018;5.576;2022-10-16T07:01:13;17.80;68.10
67820;DHT22;54618;52.018;5.576;2022-10-16T07:03:40;17.80;68.10
67820;DHT22;54618;52.018;5.576;2022-10-16T07:06:07;17.80;68.00
67820;DHT22;54618;52.018;5.576;2022-10-16T07:08:33;17.80;68.10
67820;DHT22;54618;52.018;5.576;2022-10-16T07:11:04;17.80;68.10
67820;DHT22;54618;52.018;5.576;2022-10-16T07:13:32;17.80;68.00
67820;DHT22;54618;52.018;5.576;2022-10-16T07:15:57;17.80;68.00
67820;DHT22;54618;52.018;5.576;2022-10-16T07:18:23;17.80;68.00
67820;DHT22;54618;52.018;5.576;2022-10-16T07:20:52;17.80;67.90
67820;DHT22;54618;52.018;5.576;2022-10-16T07:23:18;17.80;67.90
67820;DHT22;54618;52.018;5.576;2022-10-16T07:25:43;17.80;68.00
67820;DHT22;54618;52.018;5.576;2022-10-16T07:28:09;17.80;67.90
67820;DHT22;54618;52.018;5.576;2022-10-16T07:30:35;17.80;68.00
67820;DHT22;54618;52.018;5.576;2022-10-16T07:33:02;17.80;67.90
67820;DHT22;54618;52.018;5.576;2022-10-16T07:35:28;17.80;67.90
67820;DHT22;54618;52.018;5.576;2022-10-16T07:37:54;17.80;67.90
67820;DHT22;54618;52.018;5.576;2022-10-16T07:40:19;17.80;67.90
67820;DHT22;54618;52.018;5.576;2022-10-16T07:42:45;17.80;68.00
67820;DHT22;54618;52.018;5.576;2022-10-16T07:45:10;17.80;67.90
67820;DHT22;54618;52.018;5.576;2022-10-16T07:47:36;17.80;67.90
67820;DHT22;54618;52.018;5.576;2022-10-16T07:50:01;17.80;67.90
67820;DHT22;54618;52.018;5.576;2022-10-16T07:52:27;17.80;67.90
67820;DHT22;54618;52.018;5.576;2022-10-16T07:54:53;17.80;67.90
67820;DHT22;54618;52.018;5.576;2022-10-16T07:57:18;17.80;67.90
67820;DHT22;54618;52.018;5.576;2022-10-16T07:59:46;17.80;68.00
67820;DHT22;54618;52.018;5.576;2022-10-16T08:02:11;17.80;67.90
67820;DHT22;54618;52.018;5.576;2022-10-16T08:04:37;17.80;67.90
67820;DHT22;54618;52.018;5.576;2022-10-16T08:07:02;17.80;67.90
67820;DHT22;54618;52.018;5.576;2022-10-16T08:09:28;17.80;67.90
67820;DHT22;54618;52.018;5.576;2022-10-16T08:11:54;17.80;67.90
67820;DHT22;54618;52.018;5.576;2022-10-16T08:14:20;17.80;67.90
67820;DHT22;54618;52.018;5.576;2022-10-16T08:16:45;17.80;67.90
67820;DHT22;54618;52.018;5.576;2022-10-16T08:19:11;17.80;67.90
67820;DHT22;54618;52.018;5.576;2022-10-16T08:21:36;17.80;67.90
67820;DHT22;54618;52.018;5.576;2022-10-16T08:24:02;17.80;67.90
67820;DHT22;54618;52.018;5.576;2022-10-16T08:26:27;17.80;67.90
67820;DHT22;54618;52.018;5.576;2022-10-16T08:28:53;17.80;67.90
67820;DHT22;54618;52.018;5.576;2022-10-16T08:31:19;17.80;67.90
67820;DHT22;54618;52.018;5.576;2022-10-16T08:33:45;17.80;67.90
67820;DHT22;54618;52.018;5.576;2022-10-16T08:36:13;17.80;67.90
67820;DHT22;54618;52.018;5.576;2022-10-16T08:38:39;17.80;67.90
67820;DHT22;54618;52.018;5.576;2022-10-16T08:41:17;17.80;67.90
67820;DHT22;54618;52.018;5.576;2022-10-16T08:49:22;17.80;67.90
67820;DHT22;54618;52.018;5.576;2022-10-16T08:51:50;17.80;67.90
67820;DHT22;54618;52.018;5.576;2022-10-16T08:54:36;17.80;67.90
67820;DHT22;54618;52.018;5.576;2022-10-16T08:57:21;17.80;67.90
67820;DHT22;54618;52.018;5.576;2022-10-16T08:59:47;17.80;67.90
67820;DHT22;54618;52.018;5.576;2022-10-16T09:13:48;17.80;67.90
67820;DHT22;54618;52.018;5.576;2022-10-16T09:16:27;17.80;67.90
67820;DHT22;54618;52.018;5.576;2022-10-16T09:21:37;17.80;67.90
67820;DHT22;54618;52.018;5.576;2022-10-16T09:24:14;17.80;67.90
67820;DHT22;54618;52.018;5.576;2022-10-16T09:26:40;17.80;67.90
67820;DHT22;54618;52.018;5.576;2022-10-16T09:29:05;17.80;67.90
67820;DHT22;54618;52.018;5.576;2022-10-16T09:31:31;17.80;67.90
67820;DHT22;54618;52.018;5.576;2022-10-16T09:34:02;17.80;67.90
67820;DHT22;54618;52.018;5.576;2022-10-16T09:36:36;17.80;67.90
67820;DHT22;54618;52.018;5.576;2022-10-16T09:39:13;17.80;67.90
67820;DHT22;54618;52.018;5.576;2022-10-16T09:41:41;17.80;67.90
67820;DHT22;54618;52.018;5.576;2022-10-16T09:46:42;17.80;67.90
67820;DHT22;54618;52.018;5.576;2022-10-16T09:49:25;17.80;67.90
67820;DHT22;54618;52.018;5.576;2022-10-16T09:52:13;17.80;68.60
67820;DHT22;54618;52.018;5.576;2022-10-16T09:54:49;17.80;67.90
67820;DHT22;54618;52.018;5.576;2022-10-16T09:57:15;17.80;67.90
67820;DHT22;54618;52.018;5.576;2022-10-16T09:59:49;17.80;67.90
67820;DHT22;54618;52.018;5.576;2022-10-16T10:02:17;17.80;67.90
67820;DHT22;54618;52.018;5.576;2022-10-16T10:04:51;17.80;67.90
67820;DHT22;54618;52.018;5.576;2022-10-16T10:07:25;17.80;67.90
67820;DHT22;54618;52.018;5.576;2022-10-16T10:09:52;17.80;67.90
67820;DHT22;54618;52.018;5.576;2022-10-16T10:12:27;17.80;68.00
67820;DHT22;54618;52.018;5.576;2022-10-16T10:14:55;17.80;67.90
67820;DHT22;54618;52.018;5.576;2022-10-16T10:17:23;17.80;67.90
67820;DHT22;54618;52.018;5.576;2022-10-16T10:22:40;17.80;67.90
67820;DHT22;54618;52.018;5.576;2022-10-16T10:28:09;17.80;68.00
67820;DHT22;54618;52.018;5.576;2022-10-16T10:30:44;17.80;67.90
67820;DHT22;54618;52.018;5.576;2022-10-16T10:33:24;17.80;67.90
67820;DHT22;54618;52.018;5.576;2022-10-16T10:46:51;17.80;67.90
67820;DHT22;54618;52.018;5.576;2022-10-16T10:55:15;17.80;67.90
67820;DHT22;54618;52.018;5.576;2022-10-16T10:58:00;17.80;67.90
67820;DHT22;54618;52.018;5.576;2022-10-16T11:03:30;17.80;67.90
67820;DHT22;54618;52.018;5.576;2022-10-16T11:06:24;17.80;67.90
67820;DHT22;54618;52.018;5.576;2022-10-16T11:11:40;17.80;67.90
67820;DHT22;54618;52.018;5.576;2022-10-16T11:19:39;17.80;67.90
67820;DHT22;54618;52.018;5.576;2022-10-16T11:22:30;17.80;67.90
67820;DHT22;54618;52.018;5.576;2022-10-16T11:25:29;17.80;67.80
67820;DHT22;54618;52.018;5.576;2022-10-16T11:31:07;17.80;67.80
67820;DHT22;54618;52.018;5.576;2022-10-16T11:33:41;17.80;67.80
67820;DHT22;54618;52.018;5.576;2022-10-16T11:36:22;17.80;67.80
67820;DHT22;54618;52.018;5.576;2022-10-16T11:38:59;17.80;67.80
67820;DHT22;54618;52.018;5.576;2022-10-16T11:44:38;17.80;67.80
67820;DHT22;54618;52.018;5.576;2022-10-16T11:53:01;17.80;67.80
67820;DHT22;54618;52.018;5.576;2022-10-16T11:55:40;17.80;67.70
67820;DHT22;54618;52.018;5.576;2022-10-16T12:00:57;17.80;67.80
67820;DHT22;54618;52.018;5.576;2022-10-16T12:08:30;17.80;67.70
67820;DHT22;54618;52.018;5.576;2022-10-16T12:11:20;17.80;67.70
67820;DHT22;54618;52.018;5.576;2022-10-16T12:13:47;17.80;67.70
67820;DHT22;54618;52.018;5.576;2022-10-16T12:18:46;17.80;67.70
67820;DHT22;54618;52.018;5.576;2022-10-16T12:21:16;17.80;67.70
67820;DHT22;54618;52.018;5.576;2022-10-16T12:23:52;17.80;67.70
67820;DHT22;54618;52.018;5.576;2022-10-16T12:26:37;17.80;67.60
67820;DHT22;54618;52.018;5.576;2022-10-16T12:29:33;17.80;67.60
67820;DHT22;54618;52.018;5.576;2022-10-16T12:31:59;17.80;67.60
67820;DHT22;54618;52.018;5.576;2022-10-16T12:34:33;17.80;67.60
67820;DHT22;54618;52.018;5.576;2022-10-16T12:37:21;17.80;67.50
67820;DHT22;54618;52.018;5.576;2022-10-16T12:39:48;17.80;67.50
67820;DHT22;54618;52.018;5.576;2022-10-16T12:42:33;17.80;67.50
67820;DHT22;54618;52.018;5.576;2022-10-16T12:44:59;17.80;67.50
67820;DHT22;54618;52.018;5.576;2022-10-16T12:49:56;18.00;67.80
67820;DHT22;54618;52.018;5.576;2022-10-16T12:52:28;18.10;67.60
67820;DHT22;54618;52.018;5.576;2022-10-16T12:54:57;18.30;67.20
67820;DHT22;54618;52.018;5.576;2022-10-16T12:57:57;18.40;67.00
67820;DHT22;54618;52.018;5.576;2022-10-16T13:00:58;18.60;66.70
67820;DHT22;54618;52.018;5.576;2022-10-16T13:06:33;18.70;66.20
67820;DHT22;54618;52.018;5.576;2022-10-16T13:11:44;18.80;66.10
67820;DHT22;54618;52.018;5.576;2022-10-16T13:14:30;18.90;66.00
67820;DHT22;54618;52.018;5.576;2022-10-16T13:20:06;18.90;65.90
67820;DHT22;54618;52.018;5.576;2022-10-16T13:28:41;18.90;65.70
67820;DHT22;54618;52.018;5.576;2022-10-16T13:31:27;18.90;66.00
67820;DHT22;54618;52.018;5.576;2022-10-16T13:33:56;18.90;65.80
67820;DHT22;54618;52.018;5.576;2022-10-16T13:36:29;18.90;65.90
67820;DHT22;54618;52.018;5.576;2022-10-16T13:39:29;18.90;65.80
67820;DHT22;54618;52.018;5.576;2022-10-16T13:44:27;18.90;65.80
67820;DHT22;54618;52.018;5.576;2022-10-16T13:47:00;18.90;66.00
67820;DHT22;54618;52.018;5.576;2022-10-16T13:49:26;18.90;65.90
67820;DHT22;54618;52.018;5.576;2022-10-16T13:51:56;18.90;66.10
67820;DHT22;54618;52.018;5.576;2022-10-16T13:54:23;18.90;66.00
67820;DHT22;54618;52.018;5.576;2022-10-16T13:56:49;18.80;66.00
67820;DHT22;54618;52.018;5.576;2022-10-16T13:59:33;18.80;66.00
67820;DHT22;54618;52.018;5.576;2022-10-16T14:02:00;18.80;65.80
67820;DHT22;54618;52.018;5.576;2022-10-16T14:04:32;18.80;66.00
67820;DHT22;54618;52.018;5.576;2022-10-16T14:06:58;18.80;66.00
67820;DHT22;54618;52.018;5.576;2022-10-16T14:09:26;18.80;66.00
67820;DHT22;54618;52.018;5.576;2022-10-16T14:12:01;18.80;66.10
67820;DHT22;54618;52.018;5.576;2022-10-16T14:14:38;18.80;66.10
67820;DHT22;54618;52.018;5.576;2022-10-16T14:17:05;18.80;66.00
67820;DHT22;54618;52.018;5.576;2022-10-16T14:19:31;18.80;66.10
67820;DHT22;54618;52.018;5.576;2022-10-16T14:21:58;18.80;66.00
67820;DHT22;54618;52.018;5.576;2022-10-16T14:24:30;18.70;66.10
67820;DHT22;54618;52.018;5.576;2022-10-16T14:26:57;18.70;66.10
67820;DHT22;54618;52.018;5.576;2022-10-16T14:29:25;18.70;66.10
67820;DHT22;54618;52.018;5.576;2022-10-16T14:34:25;18.70;66.20
67820;DHT22;54618;52.018;5.576;2022-10-16T14:36:53;18.70;66.20
67820;DHT22;54618;52.018;5.576;2022-10-16T14:39:21;18.70;66.20
67820;DHT22;54618;52.018;5.576;2022-10-16T14:41:48;18.70;66.20
67820;DHT22;54618;52.018;5.576;2022-10-16T14:44:16;18.70;66.30
67820;DHT22;54618;52.018;5.576;2022-10-16T14:46:43;18.70;66.20
67820;DHT22;54618;52.018;5.576;2022-10-16T14:51:41;18.60;66.20
67820;DHT22;54618;52.018;5.576;2022-10-16T14:54:09;18.60;66.20
67820;DHT22;54618;52.018;5.576;2022-10-16T14:56:47;18.60;66.20
67820;DHT22;54618;52.018;5.576;2022-10-16T14:59:21;18.60;66.30
67820;DHT22;54618;52.018;5.576;2022-10-16T15:01:50;18.60;66.30
67820;DHT22;54618;52.018;5.576;2022-10-16T15:04:15;18.60;66.30
67820;DHT22;54618;52.018;5.576;2022-10-16T15:06:41;18.60;66.30
67820;DHT22;54618;52.018;5.576;2022-10-16T15:09:07;18.60;66.30
67820;DHT22;54618;52.018;5.576;2022-10-16T15:11:33;18.60;66.40
67820;DHT22;54618;52.018;5.576;2022-10-16T15:13:59;18.60;66.40
67820;DHT22;54618;52.018;5.576;2022-10-16T15:16:25;18.60;66.40
67820;DHT22;54618;52.018;5.576;2022-10-16T15:18:50;18.50;66.40
67820;DHT22;54618;52.018;5.576;2022-10-16T15:21:30;18.50;66.40
67820;DHT22;54618;52.018;5.576;2022-10-16T15:23:57;18.60;66.40
67820;DHT22;54618;52.018;5.576;2022-10-16T15:26:24;18.50;66.40
67820;DHT22;54618;52.018;5.576;2022-10-16T15:28:50;18.50;66.40
67820;DHT22;54618;52.018;5.576;2022-10-16T15:31:16;18.50;66.50
67820;DHT22;54618;52.018;5.576;2022-10-16T15:33:41;18.50;66.50
67820;DHT22;54618;52.018;5.576;2022-10-16T15:36:07;18.50;66.50
67820;DHT22;54618;52.018;5.576;2022-10-16T15:38:33;18.50;66.50
67820;DHT22;54618;52.018;5.576;2022-10-16T15:40:59;18.50;66.60
67820;DHT22;54618;52.018;5.576;2022-10-16T15:43:24;18.50;66.60
67820;DHT22;54618;52.018;5.576;2022-10-16T15:46:03;18.50;66.60
67820;DHT22;54618;52.018;5.576;2022-10-16T15:48:30;18.50;66.60
67820;DHT22;54618;52.018;5.576;2022-10-16T15:50:56;18.50;66.70
67820;DHT22;54618;52.018;5.576;2022-10-16T15:53:21;18.50;66.70
67820;DHT22;54618;52.018;5.576;2022-10-16T15:55:47;18.50;66.70
67820;DHT22;54618;52.018;5.576;2022-10-16T15:58:12;18.40;66.60
67820;DHT22;54618;52.018;5.576;2022-10-16T16:00:38;18.50;66.70
67820;DHT22;54618;52.018;5.576;2022-10-16T16:03:03;18.40;66.70
67820;DHT22;54618;52.018;5.576;2022-10-16T16:05:29;18.40;66.70
67820;DHT22;54618;52.018;5.576;2022-10-16T16:07:55;18.40;66.70
67820;DHT22;54618;52.018;5.576;2022-10-16T16:10:21;18.40;66.70
67820;DHT22;54618;52.018;5.576;2022-10-16T16:12:48;18.40;66.70
67820;DHT22;54618;52.018;5.576;2022-10-16T16:15:18;18.40;66.80
67820;DHT22;54618;52.018;5.576;2022-10-16T16:17:44;18.40;66.70
67820;DHT22;54618;52.018;5.576;2022-10-16T16:20:10;18.40;66.70
67820;DHT22;54618;52.018;5.576;2022-10-16T16:22:36;18.50;66.80
67820;DHT22;54618;52.018;5.576;2022-10-16T16:25:02;18.40;66.70
67820;DHT22;54618;52.018;5.576;2022-10-16T16:27:27;18.40;66.70
67820;DHT22;54618;52.018;5.576;2022-10-16T16:29:55;18.40;66.80
67820;DHT22;54618;52.018;5.576;2022-10-16T16:32:21;18.40;66.80
67820;DHT22;54618;52.018;5.576;2022-10-16T16:34:47;18.40;66.80
67820;DHT22;54618;52.018;5.576;2022-10-16T16:37:12;18.40;66.90
67820;DHT22;54618;52.018;5.576;2022-10-16T16:39:38;18.40;66.80
67820;DHT22;54618;52.018;5.576;2022-10-16T16:42:04;18.40;66.90
67820;DHT22;54618;52.018;5.576;2022-10-16T16:44:31;18.40;66.90
67820;DHT22;54618;52.018;5.576;2022-10-16T16:46:57;18.40;66.90
67820;DHT22;54618;52.018;5.576;2022-10-16T16:49:22;18.40;66.90
67820;DHT22;54618;52.018;5.576;2022-10-16T16:51:48;18.40;66.90
67820;DHT22;54618;52.018;5.576;2022-10-16T16:54:13;18.40;67.00
67820;DHT22;54618;52.018;5.576;2022-10-16T16:56:40;18.40;67.00
67820;DHT22;54618;52.018;5.576;2022-10-16T16:59:15;18.40;66.90
67820;DHT22;54618;52.018;5.576;2022-10-16T17:01:42;18.40;67.00
67820;DHT22;54618;52.018;5.576;2022-10-16T17:04:08;18.40;67.00
67820;DHT22;54618;52.018;5.576;2022-10-16T17:06:33;18.40;67.00
67820;DHT22;54618;52.018;5.576;2022-10-16T17:09:01;18.40;67.00
67820;DHT22;54618;52.018;5.576;2022-10-16T17:11:27;18.40;67.00
67820;DHT22;54618;52.018;5.576;2022-10-16T17:13:55;18.40;67.00
67820;DHT22;54618;52.018;5.576;2022-10-16T17:16:22;18.40;67.00
67820;DHT22;54618;52.018;5.576;2022-10-16T17:18:48;18.40;67.00
67820;DHT22;54618;52.018;5.576;2022-10-16T17:21:14;18.40;67.00
67820;DHT22;54618;52.018;5.576;2022-10-16T17:23:40;18.40;67.10
67820;DHT22;54618;52.018;5.576;2022-10-16T17:26:11;18.40;67.00
67820;DHT22;54618;52.018;5.576;2022-10-16T17:28:37;18.40;67.00